PSOGP SBJD-SJDS
Flight info
| Callsign | PSOGP |
|---|---|
| Flight time | 2h 42m |
| Altitude | 41000 |
| Route | NUXEL UZ23 ILPIR UZ72 EDNES UN866 EKERA/N0480F450 UN866 PALIG UZ19 MUMBI/N0240A050 VFR |
| Aircraft | C750/M-SBDE3FGHRWXY/S |
Departure
| Time | 2026-05-03 22:29 |
|---|---|
| Airport | Comte. Rolim Adolfo Amaro–Jundiaí State Airport (SBJD) |
Arrival
| Time | 2026-05-04 01:11 |
|---|---|
| Airport | M Dias Branco Airport (SJDS) |
| Time | Latitude | Longitude | Altitude | Speed | Heading |
|---|---|---|---|---|---|
| 2026-05-03 22:07 | -23.17525 | -46.94517 | 2426 ft | 0 kts | 156° |
| 2026-05-03 22:26 | -23.17545 | -46.94513 | 2427 ft | 5 kts | 207° |
| 2026-05-03 22:26 | -23.17553 | -46.94532 | 2428 ft | 3 kts | 294° |
| 2026-05-03 22:26 | -23.17510 | -46.94558 | 2426 ft | 9 kts | 332° |
| 2026-05-03 22:27 | -23.17485 | -46.94608 | 2426 ft | 0 kts | 267° |
| 2026-05-03 22:27 | -23.17491 | -46.94634 | 2428 ft | 7 kts | 245° |
| 2026-05-03 22:27 | -23.17511 | -46.94656 | 2430 ft | 2 kts | 175° |
| 2026-05-03 22:28 | -23.17522 | -46.94652 | 2431 ft | 0 kts | 155° |
| 2026-05-03 22:28 | -23.17674 | -46.94579 | 2438 ft | 66 kts | 157° |
| 2026-05-03 22:28 | -23.18350 | -46.94267 | 2478 ft | 138 kts | 154° |
| 2026-05-03 22:29 | -23.19360 | -46.93760 | 2735 ft | 177 kts | 152° |
| 2026-05-03 22:29 | -23.20560 | -46.93176 | 3603 ft | 192 kts | 146° |
| 2026-05-03 22:29 | -23.21368 | -46.92055 | 4457 ft | 203 kts | 100° |
| 2026-05-03 22:29 | -23.21293 | -46.90519 | 5373 ft | 217 kts | 79° |
| 2026-05-03 22:30 | -23.20996 | -46.88839 | 6167 ft | 238 kts | 75° |
| 2026-05-03 22:30 | -23.20601 | -46.87040 | 6953 ft | 259 kts | 74° |
| 2026-05-03 22:30 | -23.20281 | -46.85057 | 7734 ft | 280 kts | 80° |
| 2026-05-03 22:30 | -23.19888 | -46.82951 | 8743 ft | 290 kts | 76° |
| 2026-05-03 22:31 | -23.19448 | -46.80803 | 9762 ft | 298 kts | 76° |
| 2026-05-03 22:31 | -23.18898 | -46.78603 | 10560 ft | 312 kts | 67° |
| 2026-05-03 22:31 | -23.17963 | -46.76425 | 11200 ft | 331 kts | 65° |
| 2026-05-03 22:31 | -23.16998 | -46.74054 | 11844 ft | 351 kts | 65° |
| 2026-05-03 22:32 | -23.15986 | -46.71596 | 12474 ft | 369 kts | 65° |
| 2026-05-03 22:32 | -23.14937 | -46.69029 | 13244 ft | 380 kts | 66° |
| 2026-05-03 22:32 | -23.13898 | -46.66369 | 14044 ft | 390 kts | 66° |
| 2026-05-03 22:32 | -23.12807 | -46.63615 | 14886 ft | 398 kts | 66° |
| 2026-05-03 22:33 | -23.11754 | -46.60819 | 15712 ft | 405 kts | 68° |
| 2026-05-03 22:33 | -23.10713 | -46.58002 | 16527 ft | 411 kts | 68° |
| 2026-05-03 22:33 | -23.09649 | -46.55122 | 17342 ft | 416 kts | 68° |
| 2026-05-03 22:33 | -23.08565 | -46.52199 | 18171 ft | 420 kts | 68° |
| 2026-05-03 22:34 | -23.07472 | -46.49255 | 19002 ft | 423 kts | 68° |
| 2026-05-03 22:34 | -23.06369 | -46.46281 | 19840 ft | 426 kts | 68° |
| 2026-05-03 22:34 | -23.05266 | -46.43313 | 20679 ft | 427 kts | 68° |
| 2026-05-03 22:34 | -23.04155 | -46.40323 | 21480 ft | 429 kts | 68° |
| 2026-05-03 22:35 | -23.03042 | -46.37331 | 22192 ft | 433 kts | 68° |
| 2026-05-03 22:35 | -23.01912 | -46.34301 | 22846 ft | 437 kts | 67° |
| 2026-05-03 22:35 | -23.00771 | -46.31222 | 23482 ft | 441 kts | 67° |
| 2026-05-03 22:35 | -22.99630 | -46.28147 | 24110 ft | 444 kts | 66° |
| 2026-05-03 22:36 | -22.98453 | -46.25034 | 24726 ft | 447 kts | 63° |
| 2026-05-03 22:36 | -22.96718 | -46.22281 | 25299 ft | 440 kts | 39° |
| 2026-05-03 22:36 | -22.94255 | -46.20390 | 25963 ft | 428 kts | 21° |
| 2026-05-03 22:36 | -22.91646 | -46.18869 | 26559 ft | 430 kts | 21° |
| 2026-05-03 22:37 | -22.88975 | -46.17320 | 27035 ft | 435 kts | 21° |
| 2026-05-03 22:37 | -22.86309 | -46.15771 | 27556 ft | 439 kts | 21° |
| 2026-05-03 22:37 | -22.83627 | -46.14211 | 28167 ft | 439 kts | 20° |
| 2026-05-03 22:37 | -22.80912 | -46.12631 | 28771 ft | 440 kts | 20° |
| 2026-05-03 22:38 | -22.78235 | -46.11076 | 29387 ft | 440 kts | 20° |
| 2026-05-03 22:38 | -22.75510 | -46.09498 | 29907 ft | 442 kts | 20° |
| 2026-05-03 22:38 | -22.72795 | -46.07923 | 30424 ft | 444 kts | 20° |
| 2026-05-03 22:38 | -22.70074 | -46.06348 | 30939 ft | 446 kts | 20° |
| 2026-05-03 22:39 | -22.67333 | -46.04756 | 31442 ft | 448 kts | 20° |
| 2026-05-03 22:39 | -22.64555 | -46.03145 | 31958 ft | 449 kts | 20° |
| 2026-05-03 22:39 | -22.61810 | -46.01555 | 32465 ft | 450 kts | 20° |
| 2026-05-03 22:39 | -22.59059 | -45.99962 | 32973 ft | 451 kts | 20° |
| 2026-05-03 22:40 | -22.56265 | -45.98340 | 33523 ft | 451 kts | 20° |
| 2026-05-03 22:40 | -22.53523 | -45.96755 | 34053 ft | 450 kts | 20° |
| 2026-05-03 22:40 | -22.50739 | -45.95147 | 34508 ft | 452 kts | 20° |
| 2026-05-03 22:40 | -22.47930 | -45.93524 | 34937 ft | 455 kts | 20° |
| 2026-05-03 22:41 | -22.45146 | -45.91916 | 35355 ft | 457 kts | 20° |
| 2026-05-03 22:41 | -22.42321 | -45.90283 | 35784 ft | 458 kts | 20° |
| 2026-05-03 22:41 | -22.39502 | -45.88654 | 36202 ft | 460 kts | 20° |
| 2026-05-03 22:41 | -22.36700 | -45.87036 | 36622 ft | 460 kts | 20° |
| 2026-05-03 22:42 | -22.33854 | -45.85398 | 37049 ft | 461 kts | 20° |
| 2026-05-03 22:42 | -22.31039 | -45.83774 | 37479 ft | 461 kts | 20° |
| 2026-05-03 22:42 | -22.28253 | -45.82101 | 37792 ft | 469 kts | 27° |
| 2026-05-03 22:42 | -22.25633 | -45.79919 | 38113 ft | 477 kts | 33° |
| 2026-05-03 22:43 | -22.23063 | -45.77669 | 38555 ft | 475 kts | 32° |
| 2026-05-03 22:43 | -22.20479 | -45.75432 | 39000 ft | 474 kts | 32° |
| 2026-05-03 22:43 | -22.17897 | -45.73201 | 39478 ft | 473 kts | 32° |
| 2026-05-03 22:43 | -22.15353 | -45.71002 | 39941 ft | 471 kts | 32° |
| 2026-05-03 22:44 | -22.12825 | -45.68817 | 40440 ft | 469 kts | 32° |
| 2026-05-03 22:44 | -22.10284 | -45.66625 | 40951 ft | 466 kts | 32° |
| 2026-05-03 22:44 | -22.07729 | -45.64422 | 41233 ft | 469 kts | 32° |
| 2026-05-03 22:45 | -22.02580 | -45.59991 | 41228 ft | 482 kts | 32° |
| 2026-05-03 22:45 | -21.97303 | -45.55444 | 41240 ft | 485 kts | 32° |
| 2026-05-03 22:46 | -21.92015 | -45.50894 | 41249 ft | 488 kts | 32° |
| 2026-05-03 22:46 | -21.86679 | -45.46314 | 41232 ft | 491 kts | 33° |
| 2026-05-03 22:47 | -21.81333 | -45.41722 | 41230 ft | 494 kts | 33° |
| 2026-05-03 22:47 | -21.75919 | -45.37080 | 41230 ft | 496 kts | 33° |
| 2026-05-03 22:48 | -21.70531 | -45.32465 | 41205 ft | 499 kts | 33° |
| 2026-05-03 22:48 | -21.65302 | -45.27988 | 41216 ft | 499 kts | 32° |
| 2026-05-03 22:49 | -21.59832 | -45.23312 | 41218 ft | 501 kts | 32° |
| 2026-05-03 22:49 | -21.54373 | -45.18647 | 41215 ft | 502 kts | 33° |
| 2026-05-03 22:50 | -21.48913 | -45.13987 | 41212 ft | 503 kts | 33° |
| 2026-05-03 22:50 | -21.43439 | -45.09321 | 41211 ft | 504 kts | 33° |
| 2026-05-03 22:51 | -21.37904 | -45.04608 | 41212 ft | 506 kts | 33° |
| 2026-05-03 22:51 | -21.32418 | -44.99942 | 41211 ft | 507 kts | 33° |
| 2026-05-03 22:52 | -21.26879 | -44.95233 | 41214 ft | 508 kts | 33° |
| 2026-05-03 22:52 | -21.21334 | -44.90523 | 41213 ft | 509 kts | 33° |
| 2026-05-03 22:53 | -21.15727 | -44.85771 | 41213 ft | 511 kts | 33° |
| 2026-05-03 22:53 | -21.10139 | -44.81031 | 41218 ft | 512 kts | 33° |
| 2026-05-03 22:54 | -21.04551 | -44.76322 | 41209 ft | 511 kts | 31° |
| 2026-05-03 22:54 | -20.98773 | -44.71931 | 41211 ft | 511 kts | 30° |
| 2026-05-03 22:55 | -20.92983 | -44.67510 | 41215 ft | 512 kts | 30° |
| 2026-05-03 22:55 | -20.87164 | -44.63068 | 41214 ft | 513 kts | 30° |
| 2026-05-03 22:56 | -20.81355 | -44.58640 | 41228 ft | 514 kts | 30° |
| 2026-05-03 22:56 | -20.75507 | -44.54183 | 41238 ft | 514 kts | 30° |
| 2026-05-03 22:57 | -20.69708 | -44.49762 | 41236 ft | 515 kts | 31° |
| 2026-05-03 22:57 | -20.63883 | -44.45332 | 41229 ft | 516 kts | 31° |
| 2026-05-03 22:58 | -20.58002 | -44.40861 | 41216 ft | 517 kts | 31° |
| 2026-05-03 22:58 | -20.52140 | -44.36409 | 41217 ft | 518 kts | 31° |
| 2026-05-03 22:59 | -20.46270 | -44.31955 | 41205 ft | 518 kts | 30° |
| 2026-05-03 22:59 | -20.40445 | -44.27416 | 41198 ft | 519 kts | 32° |
| 2026-05-03 23:00 | -20.34663 | -44.22827 | 41203 ft | 518 kts | 32° |
| 2026-05-03 23:00 | -20.28898 | -44.18257 | 41202 ft | 518 kts | 32° |
| 2026-05-03 23:01 | -20.23086 | -44.13655 | 41203 ft | 518 kts | 32° |
| 2026-05-03 23:01 | -20.17292 | -44.09069 | 41213 ft | 518 kts | 32° |
| 2026-05-03 23:02 | -20.11514 | -44.04503 | 41221 ft | 518 kts | 32° |
| 2026-05-03 23:02 | -20.05733 | -43.99943 | 41223 ft | 517 kts | 32° |
| 2026-05-03 23:03 | -19.99905 | -43.95355 | 41227 ft | 517 kts | 32° |
| 2026-05-03 23:03 | -19.94124 | -43.90809 | 41224 ft | 518 kts | 32° |
| 2026-05-03 23:04 | -19.88322 | -43.86250 | 41219 ft | 518 kts | 32° |
| 2026-05-03 23:04 | -19.82418 | -43.81798 | 41213 ft | 516 kts | 29° |
| 2026-05-03 23:05 | -19.76474 | -43.77496 | 41206 ft | 517 kts | 30° |
| 2026-05-03 23:05 | -19.70563 | -43.73218 | 41194 ft | 517 kts | 30° |
| 2026-05-03 23:06 | -19.64621 | -43.68918 | 41204 ft | 517 kts | 30° |
| 2026-05-03 23:06 | -19.58660 | -43.64611 | 41203 ft | 518 kts | 30° |
| 2026-05-03 23:07 | -19.52718 | -43.60321 | 41197 ft | 518 kts | 30° |
| 2026-05-03 23:07 | -19.46733 | -43.56004 | 41211 ft | 518 kts | 30° |
| 2026-05-03 23:08 | -19.40786 | -43.51716 | 41215 ft | 518 kts | 30° |
| 2026-05-03 23:08 | -19.34796 | -43.47405 | 41209 ft | 519 kts | 30° |
| 2026-05-03 23:09 | -19.28573 | -43.43833 | 41289 ft | 504 kts | 13° |
| 2026-05-03 23:09 | -19.25217 | -43.42667 | 41124 ft | 507 kts | 14° |
| 2026-05-03 23:09 | -19.21835 | -43.41476 | 41199 ft | 506 kts | 14° |
| 2026-05-03 23:10 | -19.15180 | -43.39144 | 41159 ft | 507 kts | 14° |
| 2026-05-03 23:10 | -19.08469 | -43.36794 | 41192 ft | 507 kts | 14° |
| 2026-05-03 23:11 | -19.01765 | -43.34450 | 41155 ft | 508 kts | 13° |
| 2026-05-03 23:11 | -18.95032 | -43.32097 | 41138 ft | 507 kts | 13° |
| 2026-05-03 23:12 | -18.88318 | -43.29751 | 41159 ft | 506 kts | 14° |
| 2026-05-03 23:12 | -18.81645 | -43.27423 | 41164 ft | 506 kts | 14° |
| 2026-05-03 23:13 | -18.74956 | -43.25090 | 41157 ft | 506 kts | 14° |
| 2026-05-03 23:13 | -18.68266 | -43.22762 | 41165 ft | 505 kts | 13° |
| 2026-05-03 23:14 | -18.61544 | -43.20549 | 41175 ft | 505 kts | 13° |
| 2026-05-03 23:14 | -18.54856 | -43.18353 | 41185 ft | 504 kts | 13° |
| 2026-05-03 23:15 | -18.48146 | -43.16148 | 41188 ft | 504 kts | 13° |
| 2026-05-03 23:15 | -18.41409 | -43.13936 | 41190 ft | 504 kts | 13° |
| 2026-05-03 23:16 | -18.34789 | -43.11515 | 41204 ft | 506 kts | 17° |
| 2026-05-03 23:16 | -18.28167 | -43.08904 | 41183 ft | 506 kts | 17° |
| 2026-05-03 23:17 | -18.21571 | -43.06312 | 41187 ft | 506 kts | 17° |
| 2026-05-03 23:17 | -18.14974 | -43.03722 | 41191 ft | 506 kts | 17° |
| 2026-05-03 23:18 | -18.08330 | -43.01116 | 41192 ft | 507 kts | 17° |
| 2026-05-03 23:18 | -18.01716 | -42.98525 | 41202 ft | 507 kts | 17° |
| 2026-05-03 23:19 | -17.95102 | -42.95936 | 41209 ft | 507 kts | 17° |
| 2026-05-03 23:19 | -17.88456 | -42.93335 | 41207 ft | 507 kts | 17° |
| 2026-05-03 23:20 | -17.81860 | -42.90758 | 41204 ft | 507 kts | 17° |
| 2026-05-03 23:20 | -17.75185 | -42.88150 | 41195 ft | 508 kts | 17° |
| 2026-05-03 23:21 | -17.68553 | -42.85560 | 41191 ft | 508 kts | 17° |
| 2026-05-03 23:21 | -17.61945 | -42.82985 | 41183 ft | 508 kts | 17° |
| 2026-05-03 23:22 | -17.51961 | -42.79094 | 41170 ft | 509 kts | 17° |
| 2026-05-03 23:22 | -17.45321 | -42.76511 | 41166 ft | 509 kts | 17° |
| 2026-05-03 23:23 | -17.38705 | -42.73941 | 41163 ft | 509 kts | 17° |
| 2026-05-03 23:23 | -17.32054 | -42.71356 | 41163 ft | 509 kts | 17° |
| 2026-05-03 23:24 | -17.25367 | -42.68764 | 41168 ft | 509 kts | 17° |
| 2026-05-03 23:24 | -17.18761 | -42.66204 | 41162 ft | 509 kts | 17° |
| 2026-05-03 23:25 | -17.12111 | -42.63626 | 41160 ft | 509 kts | 17° |
| 2026-05-03 23:25 | -17.05447 | -42.61049 | 41156 ft | 509 kts | 17° |
| 2026-05-03 23:26 | -16.98808 | -42.58481 | 41152 ft | 509 kts | 17° |
| 2026-05-03 23:26 | -16.92151 | -42.55908 | 41154 ft | 509 kts | 17° |
| 2026-05-03 23:27 | -16.85513 | -42.53344 | 41156 ft | 509 kts | 17° |
| 2026-05-03 23:27 | -16.78828 | -42.50764 | 41154 ft | 509 kts | 17° |
| 2026-05-03 23:28 | -16.72190 | -42.48203 | 41153 ft | 509 kts | 17° |
| 2026-05-03 23:28 | -16.65556 | -42.45648 | 41150 ft | 509 kts | 17° |
| 2026-05-03 23:29 | -16.58904 | -42.43080 | 41147 ft | 509 kts | 17° |
| 2026-05-03 23:29 | -16.52244 | -42.40516 | 41143 ft | 509 kts | 17° |
| 2026-05-03 23:30 | -16.45572 | -42.37951 | 41146 ft | 510 kts | 17° |
| 2026-05-03 23:30 | -16.38922 | -42.35395 | 41146 ft | 510 kts | 17° |
| 2026-05-03 23:31 | -16.32272 | -42.32841 | 41146 ft | 510 kts | 17° |
| 2026-05-03 23:31 | -16.25601 | -42.30282 | 41139 ft | 509 kts | 17° |
| 2026-05-03 23:32 | -16.18906 | -42.27717 | 41140 ft | 509 kts | 17° |
| 2026-05-03 23:32 | -16.12377 | -42.24808 | 41161 ft | 511 kts | 24° |
| 2026-05-03 23:33 | -16.06019 | -42.21567 | 41132 ft | 512 kts | 23° |
| 2026-05-03 23:33 | -15.99599 | -42.18312 | 41146 ft | 512 kts | 23° |
| 2026-05-03 23:34 | -15.93214 | -42.15076 | 41159 ft | 512 kts | 23° |
| 2026-05-03 23:34 | -15.86773 | -42.11815 | 41161 ft | 512 kts | 23° |
| 2026-05-03 23:35 | -15.80378 | -42.08578 | 41171 ft | 512 kts | 23° |
| 2026-05-03 23:35 | -15.73956 | -42.05331 | 41176 ft | 512 kts | 23° |
| 2026-05-03 23:36 | -15.67544 | -42.02090 | 41170 ft | 512 kts | 23° |
| 2026-05-03 23:36 | -15.61167 | -41.98869 | 41159 ft | 512 kts | 23° |
| 2026-05-03 23:37 | -15.54714 | -41.95615 | 41150 ft | 512 kts | 23° |
| 2026-05-03 23:37 | -15.48298 | -41.92380 | 41140 ft | 512 kts | 24° |
| 2026-05-03 23:38 | -15.41886 | -41.89148 | 41155 ft | 512 kts | 24° |
| 2026-05-03 23:38 | -15.35487 | -41.85926 | 41161 ft | 512 kts | 24° |
| 2026-05-03 23:39 | -15.29092 | -41.82708 | 41177 ft | 511 kts | 24° |
| 2026-05-03 23:39 | -15.22678 | -41.79480 | 41189 ft | 511 kts | 24° |
| 2026-05-03 23:40 | -15.16279 | -41.76266 | 41179 ft | 512 kts | 24° |
| 2026-05-03 23:40 | -15.09873 | -41.73049 | 41172 ft | 512 kts | 24° |
| 2026-05-03 23:41 | -15.03460 | -41.69830 | 41165 ft | 512 kts | 24° |
| 2026-05-03 23:41 | -14.97048 | -41.66615 | 41162 ft | 512 kts | 24° |
| 2026-05-03 23:42 | -14.90624 | -41.63394 | 41157 ft | 512 kts | 24° |
| 2026-05-03 23:42 | -14.84203 | -41.60180 | 41149 ft | 512 kts | 24° |
| 2026-05-03 23:43 | -14.77764 | -41.56955 | 41151 ft | 512 kts | 24° |
| 2026-05-03 23:43 | -14.71376 | -41.53761 | 41154 ft | 512 kts | 24° |
| 2026-05-03 23:44 | -14.64946 | -41.50546 | 41144 ft | 512 kts | 24° |
| 2026-05-03 23:44 | -14.58519 | -41.47336 | 41143 ft | 512 kts | 24° |
| 2026-05-03 23:45 | -14.52101 | -41.44131 | 41133 ft | 512 kts | 24° |
| 2026-05-03 23:45 | -14.45687 | -41.40933 | 41113 ft | 512 kts | 24° |
| 2026-05-03 23:46 | -14.39287 | -41.37740 | 41106 ft | 512 kts | 24° |
| 2026-05-03 23:46 | -14.32854 | -41.34535 | 41096 ft | 512 kts | 24° |
| 2026-05-03 23:47 | -14.26408 | -41.31327 | 41076 ft | 512 kts | 24° |
| 2026-05-03 23:47 | -14.19984 | -41.28129 | 41076 ft | 512 kts | 24° |
| 2026-05-03 23:48 | -14.13576 | -41.24943 | 41069 ft | 512 kts | 24° |
| 2026-05-03 23:48 | -14.07175 | -41.21761 | 41063 ft | 512 kts | 24° |
| 2026-05-03 23:49 | -14.00754 | -41.18572 | 41070 ft | 511 kts | 24° |
| 2026-05-03 23:49 | -13.94317 | -41.15377 | 41062 ft | 511 kts | 24° |
| 2026-05-03 23:50 | -13.88995 | -41.12736 | 41064 ft | 511 kts | 24° |
| 2026-05-03 23:50 | -13.81531 | -41.09035 | 41065 ft | 511 kts | 24° |
| 2026-05-03 23:51 | -13.78324 | -41.07447 | 41212 ft | 512 kts | 24° |
| 2026-05-03 23:51 | -13.75091 | -41.05846 | 41850 ft | 509 kts | 24° |
| 2026-05-03 23:51 | -13.71920 | -41.04276 | 42281 ft | 509 kts | 24° |
| 2026-05-03 23:51 | -13.68706 | -41.02685 | 42637 ft | 509 kts | 24° |
| 2026-05-03 23:52 | -13.65515 | -41.01107 | 43004 ft | 508 kts | 24° |
| 2026-05-03 23:52 | -13.62349 | -40.99540 | 43369 ft | 508 kts | 24° |
| 2026-05-03 23:52 | -13.59179 | -40.97972 | 43739 ft | 507 kts | 24° |
| 2026-05-03 23:52 | -13.55988 | -40.96396 | 44114 ft | 506 kts | 24° |
| 2026-05-03 23:53 | -13.52798 | -40.94818 | 44491 ft | 504 kts | 24° |
| 2026-05-03 23:53 | -13.49662 | -40.93270 | 44860 ft | 503 kts | 24° |
| 2026-05-03 23:53 | -13.46507 | -40.91710 | 45103 ft | 504 kts | 24° |
| 2026-05-03 23:53 | -13.43307 | -40.90128 | 45084 ft | 504 kts | 24° |
| 2026-05-03 23:54 | -13.37004 | -40.87019 | 45094 ft | 502 kts | 24° |
| 2026-05-03 23:54 | -13.30721 | -40.83918 | 45057 ft | 501 kts | 24° |
| 2026-05-03 23:55 | -13.24413 | -40.80810 | 45068 ft | 500 kts | 24° |
| 2026-05-03 23:55 | -13.18131 | -40.77715 | 45083 ft | 501 kts | 24° |
| 2026-05-03 23:56 | -13.11828 | -40.74610 | 45061 ft | 502 kts | 24° |
| 2026-05-03 23:56 | -13.05496 | -40.71492 | 45057 ft | 502 kts | 24° |
| 2026-05-03 23:57 | -12.99217 | -40.68401 | 45070 ft | 502 kts | 24° |
| 2026-05-03 23:57 | -12.92915 | -40.65298 | 45060 ft | 502 kts | 24° |
| 2026-05-03 23:58 | -12.86598 | -40.62192 | 45080 ft | 502 kts | 24° |
| 2026-05-03 23:58 | -12.80288 | -40.59092 | 45088 ft | 502 kts | 24° |
| 2026-05-03 23:59 | -12.74006 | -40.56007 | 45094 ft | 502 kts | 24° |
| 2026-05-03 23:59 | -12.67677 | -40.52904 | 45097 ft | 503 kts | 24° |
| 2026-05-04 00:00 | -12.61371 | -40.49812 | 45093 ft | 503 kts | 24° |
| 2026-05-04 00:00 | -12.55040 | -40.46710 | 45095 ft | 503 kts | 24° |
| 2026-05-04 00:01 | -12.48700 | -40.43607 | 45089 ft | 503 kts | 24° |
| 2026-05-04 00:01 | -12.42370 | -40.40510 | 45084 ft | 503 kts | 24° |
| 2026-05-04 00:02 | -12.36080 | -40.37432 | 45092 ft | 503 kts | 24° |
| 2026-05-04 00:02 | -12.29733 | -40.34330 | 45092 ft | 504 kts | 23° |
| 2026-05-04 00:03 | -12.23406 | -40.31241 | 45082 ft | 504 kts | 23° |
| 2026-05-04 00:03 | -12.17086 | -40.28154 | 45087 ft | 504 kts | 23° |
| 2026-05-04 00:04 | -12.10726 | -40.25052 | 45088 ft | 504 kts | 23° |
| 2026-05-04 00:04 | -12.04389 | -40.21960 | 45085 ft | 504 kts | 23° |
| 2026-05-04 00:05 | -11.98057 | -40.18874 | 45089 ft | 504 kts | 23° |
| 2026-05-04 00:05 | -11.91737 | -40.15793 | 45097 ft | 504 kts | 23° |
| 2026-05-04 00:06 | -11.85385 | -40.12698 | 45097 ft | 504 kts | 23° |
| 2026-05-04 00:06 | -11.79072 | -40.09629 | 45101 ft | 504 kts | 23° |
| 2026-05-04 00:07 | -11.72727 | -40.06540 | 45096 ft | 504 kts | 23° |
| 2026-05-04 00:07 | -11.66386 | -40.03458 | 45071 ft | 504 kts | 23° |
| 2026-05-04 00:08 | -11.60041 | -40.00373 | 45060 ft | 504 kts | 23° |
| 2026-05-04 00:08 | -11.53695 | -39.97293 | 45062 ft | 504 kts | 23° |
| 2026-05-04 00:09 | -11.47355 | -39.94210 | 45057 ft | 504 kts | 22° |
| 2026-05-04 00:09 | -11.41034 | -39.91143 | 45060 ft | 503 kts | 22° |
| 2026-05-04 00:10 | -11.34719 | -39.88078 | 45068 ft | 503 kts | 22° |
| 2026-05-04 00:10 | -11.28386 | -39.85006 | 45068 ft | 503 kts | 22° |
| 2026-05-04 00:11 | -11.22049 | -39.81935 | 45068 ft | 502 kts | 22° |
| 2026-05-04 00:11 | -11.15743 | -39.78881 | 45066 ft | 502 kts | 22° |
| 2026-05-04 00:12 | -11.09428 | -39.75821 | 45062 ft | 502 kts | 22° |
| 2026-05-04 00:12 | -11.03098 | -39.72758 | 45056 ft | 501 kts | 22° |
| 2026-05-04 00:13 | -10.96798 | -39.69712 | 45056 ft | 501 kts | 22° |
| 2026-05-04 00:13 | -10.90508 | -39.66668 | 45052 ft | 501 kts | 22° |
| 2026-05-04 00:14 | -10.84193 | -39.63619 | 45061 ft | 501 kts | 22° |
| 2026-05-04 00:14 | -10.77900 | -39.60578 | 45068 ft | 501 kts | 22° |
| 2026-05-04 00:15 | -10.71593 | -39.57530 | 45055 ft | 501 kts | 22° |
| 2026-05-04 00:15 | -10.65299 | -39.54496 | 45078 ft | 501 kts | 22° |
| 2026-05-04 00:16 | -10.58988 | -39.51451 | 45081 ft | 501 kts | 22° |
| 2026-05-04 00:16 | -10.52692 | -39.48414 | 45080 ft | 501 kts | 22° |
| 2026-05-04 00:17 | -10.46378 | -39.45373 | 45079 ft | 502 kts | 21° |
| 2026-05-04 00:17 | -10.40066 | -39.42330 | 45101 ft | 502 kts | 21° |
| 2026-05-04 00:18 | -10.33756 | -39.39281 | 45066 ft | 503 kts | 22° |
| 2026-05-04 00:18 | -10.27429 | -39.36229 | 45082 ft | 503 kts | 22° |
| 2026-05-04 00:19 | -10.21072 | -39.33168 | 45092 ft | 503 kts | 21° |
| 2026-05-04 00:19 | -10.14772 | -39.30140 | 45062 ft | 504 kts | 21° |
| 2026-05-04 00:20 | -10.08408 | -39.27081 | 45059 ft | 504 kts | 21° |
| 2026-05-04 00:20 | -10.02058 | -39.24032 | 45075 ft | 504 kts | 21° |
| 2026-05-04 00:21 | -9.95712 | -39.20987 | 45047 ft | 504 kts | 21° |
| 2026-05-04 00:21 | -9.89336 | -39.17930 | 45059 ft | 504 kts | 22° |
| 2026-05-04 00:22 | -9.82975 | -39.14912 | 45062 ft | 504 kts | 21° |
| 2026-05-04 00:22 | -9.76583 | -39.11960 | 45055 ft | 505 kts | 21° |
| 2026-05-04 00:23 | -9.70180 | -39.09001 | 45054 ft | 505 kts | 21° |
| 2026-05-04 00:23 | -9.63799 | -39.06052 | 45051 ft | 506 kts | 21° |
| 2026-05-04 00:24 | -9.57365 | -39.03079 | 45049 ft | 507 kts | 21° |
| 2026-05-04 00:24 | -9.50941 | -39.00113 | 45048 ft | 507 kts | 21° |
| 2026-05-04 00:25 | -9.44519 | -38.97149 | 45049 ft | 507 kts | 21° |
| 2026-05-04 00:25 | -9.38073 | -38.94175 | 45044 ft | 508 kts | 21° |
| 2026-05-04 00:26 | -9.31618 | -38.91197 | 45051 ft | 508 kts | 21° |
| 2026-05-04 00:26 | -9.25194 | -38.88237 | 45051 ft | 509 kts | 21° |
| 2026-05-04 00:27 | -9.18717 | -38.85251 | 45050 ft | 509 kts | 21° |
| 2026-05-04 00:27 | -9.12251 | -38.82274 | 45060 ft | 509 kts | 21° |
| 2026-05-04 00:28 | -9.05815 | -38.79310 | 45055 ft | 510 kts | 21° |
| 2026-05-04 00:28 | -8.99334 | -38.76326 | 45047 ft | 510 kts | 21° |
| 2026-05-04 00:29 | -8.92847 | -38.73345 | 45046 ft | 510 kts | 21° |
| 2026-05-04 00:29 | -8.86420 | -38.70390 | 45045 ft | 510 kts | 21° |
| 2026-05-04 00:30 | -8.79934 | -38.67406 | 45036 ft | 511 kts | 21° |
| 2026-05-04 00:30 | -8.73446 | -38.64425 | 45039 ft | 511 kts | 21° |
| 2026-05-04 00:31 | -8.66984 | -38.61456 | 45043 ft | 511 kts | 21° |
| 2026-05-04 00:31 | -8.60520 | -38.58488 | 45044 ft | 511 kts | 22° |
| 2026-05-04 00:32 | -8.53999 | -38.55496 | 45047 ft | 511 kts | 22° |
| 2026-05-04 00:32 | -8.47556 | -38.52539 | 45047 ft | 511 kts | 22° |
| 2026-05-04 00:33 | -8.37796 | -38.48066 | 45045 ft | 511 kts | 22° |
| 2026-05-04 00:34 | -8.31358 | -38.45115 | 45050 ft | 510 kts | 22° |
| 2026-05-04 00:34 | -8.27986 | -38.43971 | 44987 ft | 503 kts | 6° |
| 2026-05-04 00:34 | -8.24552 | -38.43823 | 45130 ft | 497 kts | 356° |
| 2026-05-04 00:35 | -8.17556 | -38.43993 | 45009 ft | 499 kts | 356° |
| 2026-05-04 00:35 | -8.10619 | -38.44163 | 45069 ft | 499 kts | 356° |
| 2026-05-04 00:36 | -8.03638 | -38.44339 | 45067 ft | 500 kts | 356° |
| 2026-05-04 00:36 | -7.96693 | -38.44510 | 45042 ft | 501 kts | 356° |
| 2026-05-04 00:37 | -7.89713 | -38.44680 | 45072 ft | 500 kts | 356° |
| 2026-05-04 00:37 | -7.82729 | -38.44851 | 45080 ft | 500 kts | 356° |
| 2026-05-04 00:38 | -7.75748 | -38.45020 | 45091 ft | 500 kts | 356° |
| 2026-05-04 00:38 | -7.68748 | -38.45189 | 45101 ft | 500 kts | 356° |
| 2026-05-04 00:39 | -7.61776 | -38.45358 | 45094 ft | 501 kts | 356° |
| 2026-05-04 00:39 | -7.54794 | -38.45510 | 45080 ft | 501 kts | 356° |
| 2026-05-04 00:40 | -7.47799 | -38.45645 | 45075 ft | 501 kts | 356° |
| 2026-05-04 00:40 | -7.40810 | -38.45780 | 45071 ft | 502 kts | 356° |
| 2026-05-04 00:41 | -7.33770 | -38.45968 | 45067 ft | 502 kts | 356° |
| 2026-05-04 00:41 | -7.26790 | -38.46154 | 45066 ft | 502 kts | 356° |
| 2026-05-04 00:42 | -7.19779 | -38.46339 | 45066 ft | 502 kts | 356° |
| 2026-05-04 00:42 | -7.12802 | -38.46526 | 45062 ft | 502 kts | 356° |
| 2026-05-04 00:43 | -7.05814 | -38.46709 | 45055 ft | 502 kts | 356° |
| 2026-05-04 00:43 | -6.98780 | -38.46885 | 45056 ft | 502 kts | 356° |
| 2026-05-04 00:44 | -6.91758 | -38.47062 | 45047 ft | 503 kts | 356° |
| 2026-05-04 00:44 | -6.84792 | -38.47237 | 45030 ft | 503 kts | 356° |
| 2026-05-04 00:45 | -6.77763 | -38.47413 | 45015 ft | 503 kts | 356° |
| 2026-05-04 00:45 | -6.70727 | -38.47591 | 45014 ft | 503 kts | 356° |
| 2026-05-04 00:46 | -6.63737 | -38.47765 | 45017 ft | 503 kts | 356° |
| 2026-05-04 00:46 | -6.56715 | -38.47941 | 45022 ft | 503 kts | 356° |
| 2026-05-04 00:47 | -6.49725 | -38.48112 | 45025 ft | 503 kts | 356° |
| 2026-05-04 00:47 | -6.42695 | -38.48289 | 45033 ft | 503 kts | 356° |
| 2026-05-04 00:48 | -6.35721 | -38.48459 | 45029 ft | 503 kts | 356° |
| 2026-05-04 00:48 | -6.28678 | -38.48632 | 45038 ft | 503 kts | 356° |
| 2026-05-04 00:49 | -6.21663 | -38.48805 | 45040 ft | 503 kts | 356° |
| 2026-05-04 00:49 | -6.14659 | -38.48977 | 45030 ft | 503 kts | 356° |
| 2026-05-04 00:50 | -6.07653 | -38.49149 | 45029 ft | 503 kts | 356° |
| 2026-05-04 00:50 | -6.00607 | -38.49324 | 45025 ft | 504 kts | 356° |
| 2026-05-04 00:51 | -5.93562 | -38.49497 | 45016 ft | 504 kts | 356° |
| 2026-05-04 00:51 | -5.86564 | -38.49670 | 45012 ft | 504 kts | 356° |
| 2026-05-04 00:52 | -5.79536 | -38.49844 | 45022 ft | 504 kts | 356° |
| 2026-05-04 00:52 | -5.75985 | -38.49931 | 44789 ft | 508 kts | 356° |
| 2026-05-04 00:52 | -5.72432 | -38.50020 | 43972 ft | 507 kts | 356° |
| 2026-05-04 00:52 | -5.68937 | -38.50104 | 43355 ft | 503 kts | 357° |
| 2026-05-04 00:53 | -5.65430 | -38.50191 | 42578 ft | 504 kts | 357° |
| 2026-05-04 00:53 | -5.61935 | -38.50278 | 41724 ft | 505 kts | 357° |
| 2026-05-04 00:53 | -5.58382 | -38.50365 | 40853 ft | 507 kts | 357° |
| 2026-05-04 00:53 | -5.54868 | -38.50450 | 39970 ft | 507 kts | 357° |
| 2026-05-04 00:54 | -5.51305 | -38.50535 | 39241 ft | 506 kts | 358° |
| 2026-05-04 00:54 | -5.47799 | -38.50621 | 38598 ft | 505 kts | 358° |
| 2026-05-04 00:54 | -5.44262 | -38.50706 | 37975 ft | 505 kts | 358° |
| 2026-05-04 00:54 | -5.40747 | -38.50791 | 37311 ft | 506 kts | 358° |
| 2026-05-04 00:55 | -5.37191 | -38.50877 | 36555 ft | 508 kts | 358° |
| 2026-05-04 00:55 | -5.33670 | -38.50962 | 35769 ft | 505 kts | 358° |
| 2026-05-04 00:55 | -5.30204 | -38.51046 | 34911 ft | 501 kts | 358° |
| 2026-05-04 00:55 | -5.26690 | -38.51131 | 34019 ft | 496 kts | 358° |
| 2026-05-04 00:56 | -5.23272 | -38.51214 | 33148 ft | 491 kts | 358° |
| 2026-05-04 00:56 | -5.19862 | -38.51295 | 32374 ft | 485 kts | 358° |
| 2026-05-04 00:56 | -5.16537 | -38.51376 | 31743 ft | 477 kts | 358° |
| 2026-05-04 00:56 | -5.13245 | -38.51455 | 31106 ft | 473 kts | 358° |
| 2026-05-04 00:57 | -5.09921 | -38.51525 | 30464 ft | 471 kts | 359° |
| 2026-05-04 00:57 | -5.06663 | -38.51506 | 29844 ft | 474 kts | 0° |
| 2026-05-04 00:57 | -5.03342 | -38.51498 | 29214 ft | 475 kts | 0° |
| 2026-05-04 00:57 | -5.00026 | -38.51489 | 28585 ft | 476 kts | 0° |
| 2026-05-04 00:58 | -4.96718 | -38.51480 | 27915 ft | 476 kts | 0° |
| 2026-05-04 00:58 | -4.93422 | -38.51473 | 27172 ft | 466 kts | 0° |
| 2026-05-04 00:58 | -4.90208 | -38.51462 | 26410 ft | 456 kts | 0° |
| 2026-05-04 00:58 | -4.87071 | -38.51454 | 25651 ft | 446 kts | 0° |
| 2026-05-04 00:59 | -4.83998 | -38.51447 | 24899 ft | 437 kts | 1° |
| 2026-05-04 00:59 | -4.80959 | -38.51438 | 24225 ft | 432 kts | 1° |
| 2026-05-04 00:59 | -4.78979 | -38.51431 | 23787 ft | 430 kts | 1° |
| 2026-05-04 00:59 | -4.75975 | -38.51423 | 23097 ft | 427 kts | 1° |
| 2026-05-04 01:00 | -4.73989 | -38.51419 | 22617 ft | 425 kts | 1° |
| 2026-05-04 01:01 | -4.60386 | -38.51381 | 19428 ft | 408 kts | 2° |
| 2026-05-04 01:01 | -4.57553 | -38.51373 | 18737 ft | 404 kts | 2° |
| 2026-05-04 01:01 | -4.54760 | -38.51364 | 18053 ft | 400 kts | 2° |
| 2026-05-04 01:01 | -4.51979 | -38.51357 | 17357 ft | 394 kts | 2° |
| 2026-05-04 01:02 | -4.49268 | -38.51351 | 16666 ft | 389 kts | 2° |
| 2026-05-04 01:02 | -4.46544 | -38.51340 | 15971 ft | 384 kts | 2° |
| 2026-05-04 01:02 | -4.43900 | -38.51342 | 15353 ft | 379 kts | 1° |
| 2026-05-04 01:02 | -4.41274 | -38.51479 | 14721 ft | 375 kts | 359° |
| 2026-05-04 01:03 | -4.38697 | -38.51612 | 14097 ft | 368 kts | 359° |
| 2026-05-04 01:03 | -4.36179 | -38.51747 | 13447 ft | 355 kts | 359° |
| 2026-05-04 01:03 | -4.33738 | -38.51875 | 12791 ft | 345 kts | 359° |
| 2026-05-04 01:03 | -4.31390 | -38.51994 | 12143 ft | 336 kts | 360° |
| 2026-05-04 01:04 | -4.29061 | -38.52119 | 11492 ft | 328 kts | 0° |
| 2026-05-04 01:04 | -4.26793 | -38.52231 | 10834 ft | 321 kts | 0° |
| 2026-05-04 01:04 | -4.24595 | -38.52340 | 10190 ft | 315 kts | 0° |
| 2026-05-04 01:04 | -4.22453 | -38.52453 | 9924 ft | 296 kts | 0° |
| 2026-05-04 01:05 | -4.20457 | -38.52551 | 9664 ft | 280 kts | 0° |
| 2026-05-04 01:05 | -4.18549 | -38.52651 | 9404 ft | 267 kts | 1° |
| 2026-05-04 01:05 | -4.16667 | -38.52741 | 8998 ft | 267 kts | 1° |
| 2026-05-04 01:05 | -4.14820 | -38.52839 | 8585 ft | 265 kts | 1° |
| 2026-05-04 01:06 | -4.12982 | -38.52816 | 8063 ft | 264 kts | 7° |
| 2026-05-04 01:06 | -4.11156 | -38.52710 | 7432 ft | 268 kts | 7° |
| 2026-05-04 01:06 | -4.09259 | -38.52598 | 6707 ft | 274 kts | 7° |
| 2026-05-04 01:06 | -4.07341 | -38.52481 | 5996 ft | 278 kts | 7° |
| 2026-05-04 01:07 | -4.05434 | -38.52358 | 5424 ft | 276 kts | 7° |
| 2026-05-04 01:07 | -4.03524 | -38.52111 | 4837 ft | 272 kts | 13° |
| 2026-05-04 01:07 | -4.01681 | -38.51783 | 4257 ft | 271 kts | 13° |
| 2026-05-04 01:07 | -3.99822 | -38.51453 | 3672 ft | 269 kts | 13° |
| 2026-05-04 01:08 | -3.97968 | -38.51116 | 3082 ft | 268 kts | 13° |
| 2026-05-04 01:08 | -3.96146 | -38.50730 | 2497 ft | 265 kts | 22° |
| 2026-05-04 01:08 | -3.94740 | -38.49653 | 2044 ft | 249 kts | 61° |
| 2026-05-04 01:08 | -3.94337 | -38.48085 | 1998 ft | 225 kts | 89° |
| 2026-05-04 01:09 | -3.94395 | -38.46541 | 1975 ft | 216 kts | 93° |
| 2026-05-04 01:09 | -3.94604 | -38.45120 | 1906 ft | 192 kts | 97° |
| 2026-05-04 01:09 | -3.94386 | -38.43888 | 1433 ft | 180 kts | 55° |
| 2026-05-04 01:09 | -3.93303 | -38.43520 | 900 ft | 178 kts | 346° |
| 2026-05-04 01:10 | -3.92265 | -38.44147 | 677 ft | 175 kts | 302° |
| 2026-05-04 01:10 | -3.92086 | -38.45274 | 504 ft | 167 kts | 260° |
| 2026-05-04 01:10 | -3.92296 | -38.46416 | 368 ft | 153 kts | 265° |
| 2026-05-04 01:10 | -3.92198 | -38.47432 | 177 ft | 149 kts | 285° |
| 2026-05-04 01:11 | -3.91904 | -38.48366 | 72 ft | 127 kts | 289° |
| 2026-05-04 01:11 | -3.91705 | -38.48959 | 71 ft | 68 kts | 290° |
| 2026-05-04 01:11 | -3.91593 | -38.49292 | 71 ft | 36 kts | 288° |
| 2026-05-04 01:11 | -3.91517 | -38.49517 | 71 ft | 27 kts | 288° |
| 2026-05-04 01:12 | -3.91464 | -38.49674 | 71 ft | 20 kts | 289° |
| 2026-05-04 01:12 | -3.91431 | -38.49765 | 71 ft | 10 kts | 289° |
| 2026-05-04 01:12 | -3.91398 | -38.49813 | 71 ft | 6 kts | 11° |
| 2026-05-04 01:12 | -3.91383 | -38.49815 | 71 ft | 0 kts | 333° |
| 2026-05-04 01:13 | -3.91375 | -38.49823 | 71 ft | 5 kts | 298° |
| 2026-05-04 01:13 | -3.91363 | -38.49860 | 71 ft | 5 kts | 289° |
| 2026-05-04 01:13 | -3.91350 | -38.49888 | 71 ft | 3 kts | 314° |
| 2026-05-04 01:13 | -3.91341 | -38.49908 | 71 ft | 3 kts | 270° |
| 2026-05-04 01:14 | -3.91344 | -38.49933 | 71 ft | 3 kts | 261° |
| 2026-05-04 01:14 | -3.91344 | -38.49939 | 71 ft | 0 kts | 261° |